sensor_id;sensor_type;location;lat;lon;timestamp;P1;durP1;ratioP1;P2;durP2;ratioP2
62151;SDS011;48139;47.474;19.034;2023-03-24T04:45:49;26.15;;;18.33;;
62151;SDS011;48139;47.474;19.034;2023-03-24T04:48:54;28.10;;;16.60;;
62151;SDS011;48139;47.474;19.034;2023-03-24T04:51:57;24.40;;;16.65;;
62151;SDS011;48139;47.474;19.034;2023-03-24T04:55:00;30.10;;;15.87;;
62151;SDS011;48139;47.474;19.034;2023-03-24T04:58:05;29.33;;;17.37;;
62151;SDS011;48139;47.474;19.034;2023-03-24T05:01:08;26.23;;;17.30;;
62151;SDS011;48139;47.474;19.034;2023-03-24T05:04:11;29.12;;;15.88;;
62151;SDS011;48139;47.474;19.034;2023-03-24T05:07:14;26.47;;;15.93;;
62151;SDS011;48139;47.474;19.034;2023-03-24T05:10:17;28.38;;;16.85;;
62151;SDS011;48139;47.474;19.034;2023-03-24T05:13:23;25.05;;;15.05;;
62151;SDS011;48139;47.474;19.034;2023-03-24T05:16:26;27.33;;;16.03;;
62151;SDS011;48139;47.474;19.034;2023-03-24T05:19:29;26.20;;;15.63;;
62151;SDS011;48139;47.474;19.034;2023-03-24T05:22:32;26.17;;;15.40;;
62151;SDS011;48139;47.474;19.034;2023-03-24T05:25:35;28.07;;;18.37;;
62151;SDS011;48139;47.474;19.034;2023-03-24T05:28:37;26.33;;;17.17;;
62151;SDS011;48139;47.474;19.034;2023-03-24T05:31:41;23.45;;;15.27;;
62151;SDS011;48139;47.474;19.034;2023-03-24T05:34:43;25.67;;;16.60;;
62151;SDS011;48139;47.474;19.034;2023-03-24T05:37:46;26.35;;;16.33;;
62151;SDS011;48139;47.474;19.034;2023-03-24T05:40:49;24.97;;;15.70;;
62151;SDS011;48139;47.474;19.034;2023-03-24T05:43:51;27.73;;;15.77;;
62151;SDS011;48139;47.474;19.034;2023-03-24T05:46:54;25.93;;;17.70;;
62151;SDS011;48139;47.474;19.034;2023-03-24T05:49:57;24.87;;;16.52;;
62151;SDS011;48139;47.474;19.034;2023-03-24T05:53:00;24.95;;;18.10;;
62151;SDS011;48139;47.474;19.034;2023-03-24T05:56:04;24.08;;;17.00;;
62151;SDS011;48139;47.474;19.034;2023-03-24T05:59:08;28.58;;;18.10;;
62151;SDS011;48139;47.474;19.034;2023-03-24T06:02:14;23.23;;;15.85;;
62151;SDS011;48139;47.474;19.034;2023-03-24T06:05:17;36.75;;;17.95;;
62151;SDS011;48139;47.474;19.034;2023-03-24T06:08:22;26.40;;;16.65;;
62151;SDS011;48139;47.474;19.034;2023-03-24T06:11:26;23.77;;;14.87;;
62151;SDS011;48139;47.474;19.034;2023-03-24T06:14:30;28.08;;;14.98;;
62151;SDS011;48139;47.474;19.034;2023-03-24T06:17:36;20.35;;;15.60;;
62151;SDS011;48139;47.474;19.034;2023-03-24T06:20:39;19.55;;;14.65;;
62151;SDS011;48139;47.474;19.034;2023-03-24T06:23:44;19.50;;;15.10;;
62151;SDS011;48139;47.474;19.034;2023-03-24T06:26:49;25.95;;;15.75;;
62151;SDS011;48139;47.474;19.034;2023-03-24T06:29:52;21.60;;;14.45;;
62151;SDS011;48139;47.474;19.034;2023-03-24T06:32:54;16.95;;;13.52;;
62151;SDS011;48139;47.474;19.034;2023-03-24T06:35:57;19.70;;;14.55;;
62151;SDS011;48139;47.474;19.034;2023-03-24T06:39:01;21.75;;;14.65;;
62151;SDS011;48139;47.474;19.034;2023-03-24T06:42:05;22.05;;;14.63;;
62151;SDS011;48139;47.474;19.034;2023-03-24T06:45:08;20.23;;;13.82;;
62151;SDS011;48139;47.474;19.034;2023-03-24T06:48:12;20.65;;;14.68;;
62151;SDS011;48139;47.474;19.034;2023-03-24T06:51:15;22.17;;;15.27;;
62151;SDS011;48139;47.474;19.034;2023-03-24T06:54:19;23.20;;;15.70;;
62151;SDS011;48139;47.474;19.034;2023-03-24T06:57:21;20.97;;;14.57;;
62151;SDS011;48139;47.474;19.034;2023-03-24T07:00:30;19.87;;;14.45;;
62151;SDS011;48139;47.474;19.034;2023-03-24T07:06:40;25.70;;;15.18;;
62151;SDS011;48139;47.474;19.034;2023-03-24T07:10:04;20.73;;;14.82;;
62151;SDS011;48139;47.474;19.034;2023-03-24T07:13:08;19.80;;;14.10;;
62151;SDS011;48139;47.474;19.034;2023-03-24T07:16:11;23.50;;;15.00;;
62151;SDS011;48139;47.474;19.034;2023-03-24T07:22:18;18.92;;;15.48;;
62151;SDS011;48139;47.474;19.034;2023-03-24T07:25:22;21.40;;;15.30;;
62151;SDS011;48139;47.474;19.034;2023-03-24T07:28:25;19.10;;;15.80;;
62151;SDS011;48139;47.474;19.034;2023-03-24T07:31:28;21.23;;;14.43;;
62151;SDS011;48139;47.474;19.034;2023-03-24T07:34:34;21.77;;;14.90;;
62151;SDS011;48139;47.474;19.034;2023-03-24T07:37:38;22.00;;;15.40;;
62151;SDS011;48139;47.474;19.034;2023-03-24T07:40:41;25.80;;;15.05;;
62151;SDS011;48139;47.474;19.034;2023-03-24T07:46:47;20.85;;;15.57;;
62151;SDS011;48139;47.474;19.034;2023-03-24T07:49:51;22.40;;;16.17;;
62151;SDS011;48139;47.474;19.034;2023-03-24T07:52:54;19.42;;;14.90;;
62151;SDS011;48139;47.474;19.034;2023-03-24T07:56:01;20.08;;;14.07;;
62151;SDS011;48139;47.474;19.034;2023-03-24T08:02:15;18.62;;;13.98;;
62151;SDS011;48139;47.474;19.034;2023-03-24T08:05:21;27.73;;;15.85;;
62151;SDS011;48139;47.474;19.034;2023-03-24T08:08:24;16.90;;;12.98;;
62151;SDS011;48139;47.474;19.034;2023-03-24T08:11:30;17.92;;;14.32;;
62151;SDS011;48139;47.474;19.034;2023-03-24T08:14:32;17.42;;;11.85;;
62151;SDS011;48139;47.474;19.034;2023-03-24T08:17:35;18.73;;;11.88;;
62151;SDS011;48139;47.474;19.034;2023-03-24T08:20:38;19.58;;;12.73;;
62151;SDS011;48139;47.474;19.034;2023-03-24T08:23:41;22.67;;;15.07;;
62151;SDS011;48139;47.474;19.034;2023-03-24T08:26:43;18.80;;;13.40;;
62151;SDS011;48139;47.474;19.034;2023-03-24T08:29:48;18.15;;;12.20;;
62151;SDS011;48139;47.474;19.034;2023-03-24T08:32:54;21.92;;;13.07;;
62151;SDS011;48139;47.474;19.034;2023-03-24T08:35:59;16.52;;;12.50;;
62151;SDS011;48139;47.474;19.034;2023-03-24T08:39:02;19.75;;;11.88;;
62151;SDS011;48139;47.474;19.034;2023-03-24T08:42:09;20.58;;;12.35;;
62151;SDS011;48139;47.474;19.034;2023-03-24T08:45:12;17.48;;;12.23;;
62151;SDS011;48139;47.474;19.034;2023-03-24T08:48:15;17.90;;;12.60;;
62151;SDS011;48139;47.474;19.034;2023-03-24T08:51:18;14.68;;;10.70;;
62151;SDS011;48139;47.474;19.034;2023-03-24T08:57:24;13.85;;;10.18;;
62151;SDS011;48139;47.474;19.034;2023-03-24T09:00:28;17.98;;;10.20;;
62151;SDS011;48139;47.474;19.034;2023-03-24T09:03:30;12.90;;;9.55;;
62151;SDS011;48139;47.474;19.034;2023-03-24T09:06:33;11.75;;;7.75;;
62151;SDS011;48139;47.474;19.034;2023-03-24T09:09:35;14.40;;;8.57;;
62151;SDS011;48139;47.474;19.034;2023-03-24T09:12:39;15.45;;;8.63;;
62151;SDS011;48139;47.474;19.034;2023-03-24T09:15:47;12.75;;;8.77;;
62151;SDS011;48139;47.474;19.034;2023-03-24T09:18:51;26.50;;;12.57;;
62151;SDS011;48139;47.474;19.034;2023-03-24T09:21:54;19.23;;;8.68;;
62151;SDS011;48139;47.474;19.034;2023-03-24T09:24:56;16.95;;;8.48;;
62151;SDS011;48139;47.474;19.034;2023-03-24T09:27:59;12.98;;;8.60;;
62151;SDS011;48139;47.474;19.034;2023-03-24T09:31:04;16.00;;;8.20;;
62151;SDS011;48139;47.474;19.034;2023-03-24T09:34:07;19.73;;;11.35;;
62151;SDS011;48139;47.474;19.034;2023-03-24T09:37:10;14.65;;;9.25;;
62151;SDS011;48139;47.474;19.034;2023-03-24T09:40:25;14.35;;;10.52;;
62151;SDS011;48139;47.474;19.034;2023-03-24T09:46:44;21.33;;;12.05;;
62151;SDS011;48139;47.474;19.034;2023-03-24T09:49:51;17.55;;;9.50;;
62151;SDS011;48139;47.474;19.034;2023-03-24T09:52:55;13.90;;;9.52;;
62151;SDS011;48139;47.474;19.034;2023-03-24T09:56:10;14.90;;;9.43;;
62151;SDS011;48139;47.474;19.034;2023-03-24T09:59:19;16.17;;;9.77;;
62151;SDS011;48139;47.474;19.034;2023-03-24T10:02:27;13.65;;;9.65;;
62151;SDS011;48139;47.474;19.034;2023-03-24T10:05:36;16.83;;;10.35;;
62151;SDS011;48139;47.474;19.034;2023-03-24T10:08:45;15.60;;;8.98;;
62151;SDS011;48139;47.474;19.034;2023-03-24T10:25:25;20.88;;;9.93;;
62151;SDS011;48139;47.474;19.034;2023-03-24T10:28:49;23.50;;;9.57;;
62151;SDS011;48139;47.474;19.034;2023-03-24T10:35:45;17.62;;;9.25;;
62151;SDS011;48139;47.474;19.034;2023-03-24T10:38:58;16.98;;;9.05;;
62151;SDS011;48139;47.474;19.034;2023-03-24T10:42:23;14.45;;;6.47;;
62151;SDS011;48139;47.474;19.034;2023-03-24T10:45:32;12.98;;;6.65;;
62151;SDS011;48139;47.474;19.034;2023-03-24T10:48:45;11.93;;;6.97;;
62151;SDS011;48139;47.474;19.034;2023-03-24T10:51:53;15.15;;;5.30;;
62151;SDS011;48139;47.474;19.034;2023-03-24T10:55:05;12.93;;;4.90;;
62151;SDS011;48139;47.474;19.034;2023-03-24T11:01:42;13.20;;;5.35;;
62151;SDS011;48139;47.474;19.034;2023-03-24T11:05:31;10.52;;;4.93;;
62151;SDS011;48139;47.474;19.034;2023-03-24T11:14:22;10.40;;;4.78;;
62151;SDS011;48139;47.474;19.034;2023-03-24T11:17:27;12.35;;;4.57;;
62151;SDS011;48139;47.474;19.034;2023-03-24T11:23:40;9.88;;;4.32;;
62151;SDS011;48139;47.474;19.034;2023-03-24T11:30:03;15.10;;;5.55;;
62151;SDS011;48139;47.474;19.034;2023-03-24T11:33:06;8.13;;;4.35;;
62151;SDS011;48139;47.474;19.034;2023-03-24T11:39:34;10.07;;;4.47;;
62151;SDS011;48139;47.474;19.034;2023-03-24T11:42:44;13.73;;;4.90;;
62151;SDS011;48139;47.474;19.034;2023-03-24T11:46:04;10.07;;;4.50;;
62151;SDS011;48139;47.474;19.034;2023-03-24T11:49:12;6.85;;;3.58;;
62151;SDS011;48139;47.474;19.034;2023-03-24T11:52:23;9.15;;;4.87;;
62151;SDS011;48139;47.474;19.034;2023-03-24T11:55:34;7.03;;;4.10;;
62151;SDS011;48139;47.474;19.034;2023-03-24T11:58:48;8.02;;;3.33;;
62151;SDS011;48139;47.474;19.034;2023-03-24T12:05:10;6.35;;;2.62;;
62151;SDS011;48139;47.474;19.034;2023-03-24T12:08:25;23.17;;;3.92;;
62151;SDS011;48139;47.474;19.034;2023-03-24T12:18:33;15.45;;;4.35;;
62151;SDS011;48139;47.474;19.034;2023-03-24T12:42:07;7.47;;;2.72;;
62151;SDS011;48139;47.474;19.034;2023-03-24T12:55:07;11.55;;;4.05;;
62151;SDS011;48139;47.474;19.034;2023-03-24T13:05:04;5.00;;;2.87;;
62151;SDS011;48139;47.474;19.034;2023-03-24T13:08:17;8.25;;;3.03;;
62151;SDS011;48139;47.474;19.034;2023-03-24T13:11:35;8.00;;;2.20;;
62151;SDS011;48139;47.474;19.034;2023-03-24T13:21:44;6.37;;;2.53;;
62151;SDS011;48139;47.474;19.034;2023-03-24T13:24:49;5.37;;;2.58;;
62151;SDS011;48139;47.474;19.034;2023-03-24T13:27:53;9.95;;;2.70;;
62151;SDS011;48139;47.474;19.034;2023-03-24T13:31:00;5.47;;;1.85;;
62151;SDS011;48139;47.474;19.034;2023-03-24T13:34:08;5.30;;;2.58;;
62151;SDS011;48139;47.474;19.034;2023-03-24T13:37:24;5.22;;;1.85;;
62151;SDS011;48139;47.474;19.034;2023-03-24T13:40:30;7.35;;;2.35;;
62151;SDS011;48139;47.474;19.034;2023-03-24T13:43:45;10.40;;;3.67;;
62151;SDS011;48139;47.474;19.034;2023-03-24T13:50:17;7.30;;;2.47;;
62151;SDS011;48139;47.474;19.034;2023-03-24T13:53:24;6.22;;;2.78;;
62151;SDS011;48139;47.474;19.034;2023-03-24T13:56:34;5.00;;;2.47;;
62151;SDS011;48139;47.474;19.034;2023-03-24T13:59:41;36.40;;;5.97;;
62151;SDS011;48139;47.474;19.034;2023-03-24T14:03:14;6.80;;;2.78;;
62151;SDS011;48139;47.474;19.034;2023-03-24T14:06:47;4.90;;;2.62;;
62151;SDS011;48139;47.474;19.034;2023-03-24T14:10:37;5.07;;;2.10;;
62151;SDS011;48139;47.474;19.034;2023-03-24T14:13:18;7.85;;;2.97;;
62151;SDS011;48139;47.474;19.034;2023-03-24T14:16:32;12.73;;;3.42;;
62151;SDS011;48139;47.474;19.034;2023-03-24T14:19:41;7.82;;;2.62;;
62151;SDS011;48139;47.474;19.034;2023-03-24T14:22:44;7.50;;;3.35;;
62151;SDS011;48139;47.474;19.034;2023-03-24T14:25:51;9.27;;;2.55;;
62151;SDS011;48139;47.474;19.034;2023-03-24T14:28:56;12.27;;;3.50;;
62151;SDS011;48139;47.474;19.034;2023-03-24T14:32:00;8.20;;;2.60;;
62151;SDS011;48139;47.474;19.034;2023-03-24T14:39:17;8.38;;;2.37;;
62151;SDS011;48139;47.474;19.034;2023-03-24T14:45:36;5.20;;;2.17;;
62151;SDS011;48139;47.474;19.034;2023-03-24T14:55:18;7.60;;;2.78;;
62151;SDS011;48139;47.474;19.034;2023-03-24T14:58:29;9.98;;;3.12;;
62151;SDS011;48139;47.474;19.034;2023-03-24T15:01:37;15.90;;;3.10;;
62151;SDS011;48139;47.474;19.034;2023-03-24T15:08:26;5.80;;;2.30;;
62151;SDS011;48139;47.474;19.034;2023-03-24T15:11:30;14.65;;;2.70;;
62151;SDS011;48139;47.474;19.034;2023-03-24T15:14:35;6.85;;;2.10;;
62151;SDS011;48139;47.474;19.034;2023-03-24T15:17:39;10.55;;;3.08;;
62151;SDS011;48139;47.474;19.034;2023-03-24T15:20:45;10.27;;;2.37;;
62151;SDS011;48139;47.474;19.034;2023-03-24T15:23:47;5.43;;;2.62;;
62151;SDS011;48139;47.474;19.034;2023-03-24T15:26:54;18.58;;;2.90;;
62151;SDS011;48139;47.474;19.034;2023-03-24T15:30:13;5.05;;;2.22;;
62151;SDS011;48139;47.474;19.034;2023-03-24T15:33:17;6.10;;;2.85;;
62151;SDS011;48139;47.474;19.034;2023-03-24T15:39:25;8.40;;;2.80;;
62151;SDS011;48139;47.474;19.034;2023-03-24T15:42:29;7.65;;;3.22;;
62151;SDS011;48139;47.474;19.034;2023-03-24T15:48:34;6.78;;;3.08;;
62151;SDS011;48139;47.474;19.034;2023-03-24T15:51:54;6.90;;;3.17;;
62151;SDS011;48139;47.474;19.034;2023-03-24T15:54:59;5.47;;;2.83;;
62151;SDS011;48139;47.474;19.034;2023-03-24T15:58:19;6.75;;;3.03;;
62151;SDS011;48139;47.474;19.034;2023-03-24T16:01:27;6.83;;;2.57;;
62151;SDS011;48139;47.474;19.034;2023-03-24T16:04:38;5.25;;;2.53;;
62151;SDS011;48139;47.474;19.034;2023-03-24T16:07:41;6.68;;;2.97;;
62151;SDS011;48139;47.474;19.034;2023-03-24T16:13:56;7.78;;;3.42;;
62151;SDS011;48139;47.474;19.034;2023-03-24T16:17:00;5.68;;;3.03;;
62151;SDS011;48139;47.474;19.034;2023-03-24T16:20:10;8.48;;;2.92;;
62151;SDS011;48139;47.474;19.034;2023-03-24T16:23:20;6.07;;;2.87;;
62151;SDS011;48139;47.474;19.034;2023-03-24T16:26:24;8.33;;;3.43;;
62151;SDS011;48139;47.474;19.034;2023-03-24T16:29:28;9.10;;;3.15;;
62151;SDS011;48139;47.474;19.034;2023-03-24T16:32:31;5.68;;;2.70;;
62151;SDS011;48139;47.474;19.034;2023-03-24T16:35:34;10.25;;;2.97;;
